createdAt,value
2022-10-03T00:06:35.604Z,10.76
2022-10-03T00:17:11.050Z,10.71
2022-10-03T00:27:53.863Z,10.69
2022-10-03T00:38:57.207Z,10.70
2022-10-03T00:49:26.674Z,10.72
2022-10-03T01:00:15.218Z,10.74
2022-10-03T01:11:08.337Z,10.77
2022-10-03T01:21:32.880Z,10.77
2022-10-03T01:32:49.275Z,10.80
2022-10-03T01:43:21.280Z,10.82
2022-10-03T01:53:57.070Z,10.82
2022-10-03T02:04:25.687Z,10.83
2022-10-03T02:14:47.164Z,10.85
2022-10-03T02:26:11.753Z,10.84
2022-10-03T02:37:07.476Z,10.88
2022-10-03T02:48:30.197Z,10.91
2022-10-03T02:59:08.336Z,10.93
2022-10-03T03:10:36.493Z,10.94
2022-10-03T03:21:41.302Z,10.92
2022-10-03T03:32:25.176Z,10.95
2022-10-03T03:43:20.362Z,10.95
2022-10-03T03:54:27.619Z,10.92
2022-10-03T04:05:59.074Z,10.90
2022-10-03T04:17:15.333Z,10.90
2022-10-03T04:28:29.458Z,10.96
2022-10-03T04:39:13.521Z,11.02
2022-10-03T04:49:59.828Z,11.05
2022-10-03T05:00:56.212Z,11.02
2022-10-03T05:12:03.926Z,10.97
2022-10-03T05:22:54.293Z,10.99
2022-10-03T05:33:23.333Z,11.03
2022-10-03T05:44:29.465Z,11.08
2022-10-03T05:55:20.926Z,11.14
2022-10-03T06:06:32.407Z,11.24
2022-10-03T06:17:43.288Z,11.36
2022-10-03T06:28:02.804Z,11.44
2022-10-03T06:38:35.040Z,11.51
2022-10-03T06:49:16.070Z,11.58
2022-10-03T06:59:43.557Z,11.57
2022-10-03T07:10:08.582Z,11.54
2022-10-03T07:21:17.009Z,11.50
2022-10-03T07:32:09.958Z,11.56
2022-10-03T07:42:46.999Z,11.65
2022-10-03T07:53:01.176Z,11.86
2022-10-03T08:03:28.058Z,12.24
2022-10-03T08:14:35.470Z,12.35
2022-10-03T08:25:49.707Z,12.41
2022-10-03T08:36:59.927Z,12.47
2022-10-03T08:48:10.692Z,12.53
2022-10-03T08:59:00.872Z,12.57
2022-10-03T09:10:21.537Z,12.62
2022-10-03T09:21:07.162Z,12.60
2022-10-03T09:31:48.456Z,12.48
2022-10-03T09:42:34.102Z,12.42
2022-10-03T09:53:40.163Z,12.44
2022-10-03T10:04:54.148Z,12.40
2022-10-03T10:15:46.460Z,12.49
2022-10-03T10:26:14.040Z,12.54
2022-10-03T10:37:33.628Z,12.41
2022-10-03T10:48:19.512Z,12.41
2022-10-03T10:58:59.292Z,12.37
2022-10-03T11:09:47.667Z,12.46
2022-10-03T11:20:38.093Z,12.71
2022-10-03T11:31:29.846Z,13.27
2022-10-03T11:42:02.361Z,13.58
2022-10-03T11:52:55.179Z,13.85
2022-10-03T12:03:33.098Z,13.96
2022-10-03T12:14:20.291Z,14.09
2022-10-03T12:25:07.295Z,14.10
2022-10-03T12:36:14.516Z,14.56
2022-10-03T12:47:07.755Z,14.53
2022-10-03T12:57:47.445Z,14.38
2022-10-03T13:08:07.964Z,14.22
2022-10-03T13:18:42.959Z,14.57
2022-10-03T13:29:20.500Z,14.79
2022-10-03T13:39:37.033Z,14.98
2022-10-03T13:50:01.400Z,15.04
2022-10-03T14:00:23.721Z,14.90
2022-10-03T14:11:08.105Z,14.81
2022-10-03T14:21:57.131Z,14.76
2022-10-03T14:32:47.347Z,14.66
2022-10-03T14:43:31.852Z,14.54
2022-10-03T14:54:31.515Z,14.43
2022-10-03T15:04:42.511Z,14.30
2022-10-03T15:15:15.948Z,14.17
2022-10-03T15:25:53.160Z,13.92
2022-10-03T15:36:32.810Z,13.71
2022-10-03T15:47:06.828Z,13.55
2022-10-03T15:57:32.120Z,13.33
2022-10-03T16:08:25.906Z,13.15
2022-10-03T16:19:10.964Z,12.93
2022-10-03T16:29:54.433Z,12.71
2022-10-03T16:40:40.547Z,12.49
2022-10-03T16:51:35.954Z,12.27
2022-10-03T17:02:19.845Z,12.10
2022-10-03T17:13:07.037Z,12.04
2022-10-03T17:24:17.464Z,11.93
2022-10-03T17:35:00.122Z,11.77
2022-10-03T17:45:48.217Z,11.61
2022-10-03T17:56:46.059Z,11.49
2022-10-03T18:07:27.675Z,11.41
2022-10-03T18:17:54.891Z,11.36
2022-10-03T18:29:06.263Z,11.30
2022-10-03T18:51:58.804Z,11.14
2022-10-03T19:02:22.105Z,11.01
2022-10-03T19:13:05.540Z,10.90
2022-10-03T19:23:36.394Z,10.80
2022-10-03T19:34:01.387Z,10.72
2022-10-03T19:44:22.318Z,10.66
2022-10-03T19:55:15.444Z,10.66
2022-10-03T20:06:11.824Z,10.63
2022-10-03T20:16:37.365Z,10.64
2022-10-03T20:27:52.145Z,10.74
2022-10-03T20:38:59.293Z,10.87
2022-10-03T20:49:53.361Z,10.97
2022-10-03T21:01:08.161Z,11.01
2022-10-03T21:11:19.472Z,11.03
2022-10-03T21:21:51.762Z,11.03
2022-10-03T21:33:10.104Z,10.96
2022-10-03T21:43:30.334Z,10.89
2022-10-03T21:53:55.312Z,10.82
2022-10-03T22:04:41.753Z,10.82
2022-10-03T22:15:55.716Z,10.84
2022-10-03T22:26:27.247Z,10.84
2022-10-03T22:36:54.857Z,10.85
2022-10-03T22:47:24.146Z,10.82
2022-10-03T22:57:36.083Z,10.78
2022-10-03T23:08:23.842Z,10.74
2022-10-03T23:39:38.387Z,10.97
2022-10-03T23:50:15.151Z,11.06
